Clovis ASC Data

Date Time Air Temperature Relative Humidity Dewpoint Windchill Heat Index Wind Speed Wind Dir. Rain Solar Radiation Soil Temperature Soil Temperature
2m 2m 3m 3m 5cm 10cm
US/Mountain F % F F F MPH deg in MJ/m^2 F F
max avg avg
2021-07-22 00:05:00 64.1 69.4 53.9 64.1 64.1 5.1 7.4 5.2 140.6 142.5 0.00 0.0000000 74.3 78.5
2021-07-22 00:10:00 64.0 69.1 53.6 64.0 64.0 5.5 7.6 5.5 146.5 141.3 0.00 0.0000000 74.2 78.4
2021-07-22 00:15:00 63.5 71.0 54.0 63.5 63.5 4.4 7.1 4.8 141.1 144.1 0.00 0.0000000 74.1 78.3
2021-07-22 00:20:00 63.3 72.4 54.3 63.3 63.3 4.2 6.3 4.8 156.5 152.6 0.00 0.0000000 73.9 78.2
2021-07-22 00:25:00 63.0 73.0 54.2 63.0 63.0 4.7 6.2 4.9 132.1 152.5 0.00 0.0000000 73.8 78.0
2021-07-22 00:30:00 62.9 72.2 53.8 62.9 62.9 6.5 7.2 6.0 148.5 145.2 0.00 0.0000000 73.7 78.0
2021-07-22 00:35:00 63.0 72.2 53.9 63.0 63.0 6.7 7.2 6.5 140.9 149.6 0.00 0.0000000 73.5 77.8
2021-07-22 00:40:00 63.2 71.4 53.8 63.2 63.2 8.0 8.1 6.4 118.0 138.8 0.00 0.0000000 73.4 77.7
2021-07-22 00:45:00 63.0 73.0 54.2 63.0 63.0 5.1 7.6 6.2 139.3 144.4 0.00 0.0000000 73.3 77.6
2021-07-22 00:50:00 62.9 74.0 54.4 62.9 62.9 4.7 7.4 5.5 151.7 153.0 0.00 0.0000000 73.1 77.5
2021-07-22 00:55:00 62.7 74.1 54.3 62.7 62.7 6.7 8.0 5.9 137.4 146.6 0.00 0.0000000 73.0 77.3
2021-07-22 01:00:00 62.4 75.3 54.5 62.4 62.4 5.1 7.2 5.6 155.7 152.2 0.00 0.0000000 72.9 77.3
2021-07-22 01:05:00 62.2 75.9 54.5 62.2 62.2 4.2 5.6 4.5 154.3 154.2 0.00 0.0000000 72.8 77.1
2021-07-22 01:10:00 61.9 76.9 54.6 61.9 61.9 4.9 5.1 4.0 153.0 156.8 0.00 0.0000000 72.7 77.0
2021-07-22 01:15:00 61.9 76.9 54.6 61.9 61.9 3.3 6.0 4.7 177.0 153.3 0.00 0.0000000 72.6 76.9
2021-07-22 01:20:00 62.0 76.3 54.4 62.0 62.0 4.4 5.5 4.7 173.1 158.7 0.00 0.0000000 72.5 76.8
2021-07-22 01:25:00 62.0 76.7 54.6 62.0 62.0 5.8 5.8 4.3 170.8 165.5 0.00 0.0000000 72.4 76.7
2021-07-22 01:30:00 61.9 77.5 54.8 61.9 61.9 2.8 5.6 4.2 168.3 163.6 0.00 0.0000000 72.2 76.6
2021-07-22 01:35:00 61.7 78.4 54.9 61.7 61.7 3.7 4.9 4.0 163.3 164.2 0.00 0.0000000 72.2 76.5
2021-07-22 01:40:00 61.4 79.0 54.9 61.4 61.4 4.2 4.9 4.0 173.3 161.8 0.00 0.0000000 72.1 76.4
2021-07-22 01:45:00 61.4 79.6 55.1 61.4 61.4 4.0 4.9 4.0 160.5 161.7 0.00 0.0000000 71.9 76.3
2021-07-22 01:50:00 61.4 79.1 54.9 61.4 61.4 4.2 4.4 3.9 145.8 157.8 0.00 0.0000000 71.9 76.2
2021-07-22 01:55:00 61.6 77.7 54.6 61.6 61.6 3.5 4.6 3.9 174.0 159.9 0.00 0.0000000 71.8 76.1
2021-07-22 02:00:00 61.8 77.6 54.7 61.8 61.8 3.5 4.7 3.8 164.3 165.5 0.00 0.0000000 71.7 76.0
2021-07-22 02:05:00 61.6 78.3 54.8 61.6 61.6 3.5 4.7 3.9 189.6 177.1 0.00 0.0000000 71.6 75.9
2021-07-22 02:10:00 61.4 79.2 54.9 61.4 61.4 2.8 3.3 2.8 175.7 187.3 0.00 0.0000000 71.5 75.8
2021-07-22 02:15:00 61.4 79.6 55.0 61.4 61.4 2.4 3.5 2.9 217.6 188.9 0.00 0.0000000 71.4 75.7
2021-07-22 02:20:00 61.3 79.4 54.9 61.3 61.3 2.2 2.6 2.2 206.0 196.8 0.00 0.0000000 71.3 75.6
2021-07-22 02:25:00 61.3 79.0 54.7 61.3 61.3 3.0 3.3 2.6 171.5 189.0 0.00 0.0000000 71.2 75.5
2021-07-22 02:30:00 61.1 79.4 54.7 61.1 61.1 2.8 3.5 2.8 180.7 184.2 0.00 0.0000000 71.2 75.5
2021-07-22 02:35:00 61.3 78.7 54.6 61.3 61.3 3.8 4.4 3.5 192.7 189.3 0.00 0.0000000 71.1 75.4
2021-07-22 02:40:00 61.4 78.2 54.6 61.4 61.4 3.5 5.6 3.8 207.4 192.4 0.00 0.0000000 71.0 75.3
2021-07-22 02:45:00 61.4 79.0 54.9 61.4 61.4 4.0 4.2 3.6 212.1 195.4 0.00 0.0000000 70.9 75.2
2021-07-22 02:50:00 61.2 79.7 54.9 61.2 61.2 3.7 4.6 3.6 190.0 198.6 0.00 0.0000000 70.9 75.1
2021-07-22 02:55:00 61.1 79.3 54.7 61.1 61.1 3.3 4.4 3.8 190.4 200.5 0.00 0.0000000 70.8 75.0
2021-07-22 03:00:00 61.0 79.6 54.6 61.0 61.0 3.3 4.2 3.6 209.4 197.9 0.00 0.0000000 70.7 75.0
2021-07-22 03:05:00 61.0 79.2 54.5 61.0 61.0 3.8 5.1 3.7 189.9 188.7 0.00 0.0000000 70.6 74.9
2021-07-22 03:10:00 61.1 79.0 54.5 61.1 61.1 4.2 5.3 4.0 178.1 183.3 0.00 0.0000000 70.6 74.8
2021-07-22 03:15:00 61.0 79.2 54.5 61.0 61.0 4.2 5.1 4.1 197.8 187.1 0.00 0.0000000 70.5 74.7
2021-07-22 03:20:00 61.4 78.5 54.6 61.4 61.4 4.6 5.3 4.5 177.7 189.6 0.00 0.0000000 70.4 74.6
2021-07-22 03:25:00 61.1 79.7 54.8 61.1 61.1 3.5 5.1 3.9 183.7 193.1 0.00 0.0000000 70.3 74.5
2021-07-22 03:30:00 60.7 81.3 55.0 60.7 60.7 3.0 4.0 3.4 199.5 200.3 0.00 0.0000000 70.2 74.4
2021-07-22 03:35:00 60.3 82.5 54.9 60.3 60.3 2.6 3.1 2.6 173.0 184.5 0.00 0.0000000 70.2 74.4
2021-07-22 03:40:00 60.0 82.9 54.8 60.0 60.0 4.0 4.0 2.9 155.0 167.3 0.00 0.0000000 70.1 74.3
2021-07-22 03:45:00 60.0 82.0 54.5 60.0 60.0 3.5 5.3 4.3 171.0 145.2 0.00 0.0000000 70.0 74.2
2021-07-22 03:50:00 61.0 79.3 54.5 61.0 61.0 5.6 5.6 4.4 151.1 169.9 0.00 0.0000000 69.9 74.1
2021-07-22 03:55:00 61.3 79.4 54.9 61.3 61.3 6.0 6.2 4.9 167.8 168.7 0.00 0.0000000 69.9 74.0
2021-07-22 04:00:00 61.8 78.0 54.9 61.8 61.8 4.9 6.2 4.8 188.3 182.3 0.00 0.0000000 69.7 74.0
2021-07-22 04:05:00 62.1 77.9 55.1 62.1 62.1 4.4 5.5 4.9 181.5 179.6 0.00 0.0000000 69.7 73.9
2021-07-22 04:10:00 62.0 78.5 55.2 62.0 62.0 5.6 6.5 5.0 226.4 186.8 0.00 0.0000000 69.6 73.8
2021-07-22 04:15:00 62.1 78.4 55.3 62.1 62.1 4.2 6.2 4.8 185.4 189.9 0.00 0.0000000 69.5 73.8
2021-07-22 04:20:00 61.9 78.8 55.3 61.9 61.9 4.6 7.2 4.5 191.7 193.6 0.00 0.0000000 69.5 73.7
2021-07-22 04:25:00 61.8 78.9 55.2 61.8 61.8 4.4 5.5 4.2 189.6 185.5 0.00 0.0000000 69.4 73.6
2021-07-22 04:30:00 61.5 80.2 55.3 61.5 61.5 4.4 5.3 4.2 185.5 178.1 0.00 0.0000000 69.4 73.5
2021-07-22 04:35:00 61.3 81.5 55.6 61.3 61.3 4.0 4.6 3.6 187.7 188.1 0.00 0.0000000 69.3 73.5
2021-07-22 04:40:00 61.2 81.0 55.3 61.2 61.2 4.6 5.8 4.3 182.3 186.4 0.00 0.0000000 69.3 73.4
2021-07-22 04:45:00 61.4 80.4 55.4 61.4 61.4 5.6 5.6 4.5 177.6 190.6 0.00 0.0000000 69.2 73.3
2021-07-22 04:50:00 61.6 79.8 55.3 61.6 61.6 4.9 7.2 5.2 198.3 181.5 0.00 0.0000000 69.2 73.3
2021-07-22 04:55:00 61.9 79.5 55.5 61.9 61.9 4.6 7.2 5.4 197.6 176.1 0.00 0.0000000 69.1 73.2
2021-07-22 05:00:00 62.3 78.9 55.7 62.3 62.3 5.1 6.7 5.6 172.1 182.2 0.00 0.0000000 69.0 73.1
2021-07-22 05:05:00 62.0 79.9 55.7 62.0 62.0 4.2 7.2 4.9 188.7 179.3 0.00 0.0000000 69.0 73.1
2021-07-22 05:10:00 61.8 80.7 55.8 61.8 61.8 4.6 6.5 4.9 167.0 176.0 0.00 0.0000000 69.0 73.0
2021-07-22 05:15:00 62.0 79.7 55.6 62.0 62.0 6.0 8.8 6.0 174.8 179.0 0.00 0.0000000 68.9 73.0
2021-07-22 05:20:00 62.1 79.6 55.7 62.1 62.1 8.0 8.0 6.2 170.1 174.7 0.00 0.0000000 68.8 72.9
2021-07-22 05:25:00 61.9 80.3 55.8 61.9 61.9 6.5 8.0 6.1 203.0 177.9 0.00 0.0000000 68.8 72.8
2021-07-22 05:30:00 61.9 80.5 55.9 61.9 61.9 6.7 8.0 6.7 157.6 175.6 0.00 0.0000000 68.7 72.8
2021-07-22 05:35:00 61.9 80.7 55.9 61.9 61.9 6.9 9.4 7.2 179.4 178.0 0.00 0.0000000 68.7 72.7
2021-07-22 05:40:00 61.8 81.5 56.1 61.8 61.8 6.7 8.7 6.8 172.6 176.7 0.00 0.0000000 68.6 72.6
2021-07-22 05:45:00 61.9 81.4 56.1 61.9 61.9 6.9 9.6 7.0 187.4 181.5 0.00 0.0000000 68.6 72.6
2021-07-22 05:50:00 61.6 82.3 56.2 61.6 61.6 6.5 8.1 5.9 174.0 181.2 0.00 0.0000000 68.5 72.5
2021-07-22 05:55:00 61.4 83.1 56.2 61.4 61.4 5.5 7.4 5.6 173.8 177.0 0.00 0.0000470 68.4 72.5
2021-07-22 06:00:00 61.1 84.1 56.2 61.1 61.1 5.5 6.5 5.3 177.3 182.8 0.00 0.0006756 68.4 72.4
2021-07-22 06:05:00 61.0 84.5 56.3 61.0 61.0 4.4 6.5 5.1 174.0 180.6 0.00 0.0021687 68.4 72.4
2021-07-22 06:10:00 61.0 84.9 56.4 61.0 61.0 4.6 6.3 5.1 188.4 189.0 0.00 0.0041156 68.3 72.3
2021-07-22 06:15:00 61.0 84.8 56.4 61.0 61.0 4.2 6.2 5.2 192.6 190.1 0.00 0.0064719 68.3 72.2
2021-07-22 06:20:00 61.1 84.4 56.4 61.1 61.1 5.1 6.5 5.1 183.1 185.2 0.00 0.0090855 68.2 72.2
2021-07-22 06:25:00 61.3 84.3 56.6 61.3 61.3 4.4 7.6 5.2 214.9 188.4 0.00 0.0120961 68.2 72.1
2021-07-22 06:30:00 61.4 83.8 56.4 61.4 61.4 4.7 6.5 5.0 191.5 185.3 0.00 0.0154124 68.2 72.1
2021-07-22 06:35:00 61.6 83.5 56.5 61.6 61.6 5.1 6.7 5.1 194.5 192.7 0.00 0.0196063 68.1 72.0
2021-07-22 06:40:00 61.9 83.3 56.8 61.9 61.9 5.1 6.5 4.6 174.8 194.3 0.00 0.0241802 68.1 72.0
2021-07-22 06:45:00 62.0 83.3 56.9 62.0 62.0 3.8 6.9 4.5 182.2 190.1 0.00 0.0286214 68.1 71.9
2021-07-22 06:50:00 62.3 81.8 56.7 62.3 62.3 6.2 6.5 5.3 189.3 190.3 0.00 0.0340264 68.1 71.9
2021-07-22 06:55:00 62.7 82.1 57.1 62.7 62.7 3.5 5.8 4.7 187.2 190.7 0.00 0.0373684 68.2 71.8
2021-07-22 07:00:00 63.1 80.7 57.1 63.1 63.1 5.5 7.6 5.5 180.5 190.7 0.00 0.0434247 68.2 71.8
2021-07-22 07:05:00 63.5 79.4 57.0 63.5 63.5 6.7 9.0 6.5 172.1 187.1 0.00 0.0509054 68.3 71.8
2021-07-22 07:10:00 64.1 78.4 57.3 64.1 64.1 5.3 8.8 6.3 178.6 186.8 0.00 0.0564128 68.3 71.8
2021-07-22 07:15:00 64.9 75.9 57.1 64.9 64.9 7.6 9.7 6.8 197.7 193.2 0.00 0.0590159 68.4 71.8
2021-07-22 07:20:00 65.1 76.3 57.5 65.1 65.1 4.7 9.6 7.2 195.8 189.3 0.00 0.0598141 68.5 71.8
2021-07-22 07:25:00 65.2 75.2 57.2 65.2 65.2 9.9 9.9 7.2 186.6 188.2 0.00 0.0559525 68.6 71.8
2021-07-22 07:30:00 64.9 77.4 57.7 64.9 64.9 4.9 8.8 6.5 187.6 185.3 0.00 0.0334764 68.8 71.8
2021-07-22 07:35:00 64.6 77.3 57.3 64.6 64.6 7.6 8.8 7.0 183.9 183.6 0.00 0.0298761 68.9 71.8
2021-07-22 07:40:00 64.6 78.1 57.6 64.6 64.6 8.0 9.7 7.3 186.5 191.4 0.00 0.0312652 69.0 71.8
2021-07-22 07:45:00 64.6 79.3 58.0 64.6 64.6 4.7 8.8 7.1 191.8 191.9 0.00 0.0394324 69.0 71.9
2021-07-22 07:50:00 64.7 78.7 58.0 64.7 64.7 6.9 8.3 6.6 203.2 191.8 0.00 0.0465110 69.1 71.9
2021-07-22 07:55:00 65.1 77.1 57.7 65.1 65.1 7.4 9.4 7.1 193.5 190.0 0.00 0.0523987 69.2 71.9
2021-07-22 08:00:00 65.2 76.1 57.5 65.2 65.2 8.8 10.1 7.9 180.3 189.6 0.00 0.0458627 69.2 71.9
2021-07-22 08:05:00 65.5 76.3 57.9 65.5 65.5 8.1 10.1 8.3 177.0 190.5 0.00 0.0607768 69.3 71.9
2021-07-22 08:10:00 65.8 75.9 58.0 65.8 65.8 7.4 9.9 7.6 158.0 185.4 0.00 0.0708882 69.4 72.0
2021-07-22 08:15:00 66.8 76.0 59.0 66.8 66.8 7.2 10.3 7.5 175.6 188.8 0.00 0.1086254 69.5 72.0
2021-07-22 08:20:00 67.5 74.2 59.0 67.5 67.5 8.5 9.7 7.4 178.2 184.8 0.00 0.1088513 69.7 72.0
2021-07-22 08:25:00 68.3 72.8 59.2 68.3 68.3 9.6 10.8 7.9 176.9 185.4 0.00 0.1149563 69.9 72.1
2021-07-22 08:30:00 68.8 72.1 59.5 68.8 68.8 8.0 13.1 8.5 195.4 186.1 0.00 0.1243385 70.1 72.1
2021-07-22 08:35:00 68.8 70.8 58.9 68.8 68.8 11.2 12.8 10.0 165.4 190.8 0.00 0.1285478 70.3 72.2
2021-07-22 08:40:00 69.3 72.5 60.0 69.3 69.3 6.5 12.4 9.1 173.8 183.5 0.00 0.1318572 70.6 72.2
2021-07-22 08:45:00 69.5 69.5 59.1 69.5 69.5 9.4 13.0 10.4 190.3 182.2 0.00 0.1373491 71.0 72.4
2021-07-22 08:50:00 69.7 69.7 59.4 69.7 69.7 9.2 13.3 10.7 194.0 184.9 0.00 0.1428600 71.2 72.4
2021-07-22 08:55:00 70.3 68.7 59.5 70.3 70.3 11.0 11.9 9.7 200.7 192.4 0.00 0.1483678 71.5 72.6
2021-07-22 09:00:00 70.7 68.6 59.8 70.7 70.7 11.3 12.8 10.2 178.0 187.1 0.00 0.1520189 71.9 72.7
2021-07-22 09:05:00 71.2 65.9 59.3 71.2 71.2 11.0 14.4 10.8 195.0 183.9 0.00 0.1589451 72.2 72.8
2021-07-22 09:10:00 71.6 65.0 59.2 71.6 71.6 9.7 14.0 11.1 181.8 184.8 0.00 0.1638268 72.5 73.0
2021-07-22 09:15:00 72.1 64.7 59.5 72.1 72.1 11.7 13.3 10.3 187.1 193.4 0.00 0.1686422 72.9 73.1
2021-07-22 09:20:00 72.2 63.7 59.2 72.2 72.2 11.7 15.5 12.1 167.1 176.2 0.00 0.1738718 73.2 73.3
2021-07-22 09:25:00 72.7 63.4 59.5 72.7 72.7 10.1 14.9 11.9 187.3 176.7 0.00 0.1802184 73.5 73.4
2021-07-22 09:30:00 73.1 61.8 59.2 73.1 73.1 11.3 15.8 11.9 194.0 179.7 0.00 0.1855461 73.9 73.6
2021-07-22 09:35:00 73.3 61.7 59.3 73.3 73.3 13.0 14.7 12.0 162.6 174.4 0.00 0.1909680 74.2 73.8
2021-07-22 09:40:00 73.2 62.0 59.4 73.2 73.2 14.4 16.5 12.8 184.5 182.0 0.00 0.1959643 74.5 74.0
2021-07-22 09:45:00 73.4 62.4 59.8 73.4 73.4 12.6 17.1 13.2 179.0 183.4 0.00 0.2007744 74.8 74.2
2021-07-22 09:50:00 73.7 61.4 59.6 73.7 73.7 13.3 16.2 12.6 150.3 176.8 0.00 0.2057378 75.1 74.4
2021-07-22 09:55:00 73.7 60.7 59.3 73.7 73.7 12.6 15.3 12.7 188.8 179.6 0.00 0.2116893 75.4 74.6
2021-07-22 10:00:00 74.5 61.3 60.3 74.5 74.5 13.5 15.1 11.9 170.8 165.0 0.00 0.2176369 75.7 74.8
2021-07-22 10:05:00 74.5 59.8 59.6 74.5 74.5 11.5 17.8 13.9 163.5 169.3 0.00 0.2202852 76.0 75.0
2021-07-22 10:10:00 74.7 59.1 59.5 74.7 74.7 11.0 17.1 12.9 179.1 190.1 0.00 0.2218182 76.3 75.2
2021-07-22 10:15:00 75.1 55.5 58.1 75.1 75.1 13.1 18.7 13.0 192.7 186.7 0.00 0.2263602 76.6 75.5
2021-07-22 10:20:00 74.8 56.1 58.1 74.8 74.8 11.9 18.3 14.4 190.5 175.3 0.00 0.2302252 76.9 75.7
2021-07-22 10:25:00 75.0 56.7 58.6 75.0 75.0 11.3 18.3 14.2 187.7 167.1 0.00 0.2336494 77.1 75.9
2021-07-22 10:30:00 75.6 55.6 58.6 75.6 75.6 13.0 15.6 12.5 189.6 172.8 0.00 0.2374698 77.4 76.2
2021-07-22 10:35:00 75.7 55.5 58.6 75.7 75.7 15.6 16.4 12.8 207.2 167.4 0.00 0.2409403 77.7 76.4
2021-07-22 10:40:00 76.2 52.5 57.6 76.2 76.2 14.4 17.8 13.7 189.8 174.5 0.00 0.2447014 78.0 76.6
2021-07-22 10:45:00 76.0 54.0 58.2 76.0 76.0 12.1 15.8 12.8 173.9 184.1 0.00 0.2459391 78.3 76.9
2021-07-22 10:50:00 76.1 53.8 58.2 76.1 76.1 13.5 17.4 13.9 164.6 181.2 0.00 0.2497274 78.5 77.1
2021-07-22 10:55:00 76.5 49.5 56.2 76.5 76.5 12.8 17.1 13.0 201.1 190.4 0.00 0.2532988 78.8 77.3
2021-07-22 11:00:00 76.5 53.9 58.6 76.5 76.5 13.7 16.2 12.3 171.8 180.4 0.00 0.2568104 79.0 77.6
2021-07-22 11:05:00 76.8 54.2 59.0 76.8 76.8 13.0 16.4 12.7 154.6 163.6 0.00 0.2601121 79.2 77.8
2021-07-22 11:10:00 77.3 51.7 58.1 77.3 77.3 13.0 16.2 12.0 199.5 172.4 0.00 0.2640577 79.3 78.1
2021-07-22 11:15:00 77.0 51.7 57.9 77.0 77.0 10.1 17.1 13.0 175.9 168.4 0.00 0.2666768 79.3 78.3
2021-07-22 11:20:00 77.5 49.9 57.3 77.5 77.5 14.6 17.8 12.0 184.9 173.7 0.00 0.2710443 79.3 78.6
2021-07-22 11:25:00 77.5 50.4 57.6 77.5 77.5 10.1 15.8 12.0 175.3 173.1 0.00 0.2724701 79.2 78.9
2021-07-22 11:30:00 77.7 51.9 58.6 77.7 77.7 13.9 15.1 11.7 171.4 182.6 0.00 0.2744423 79.2 79.1
2021-07-22 11:35:00 78.1 51.8 59.0 78.1 78.1 10.1 16.5 11.7 171.1 169.0 0.00 0.2755584 79.2 79.4
2021-07-22 11:40:00 77.8 53.8 59.7 77.8 77.8 9.7 16.2 11.7 146.2 171.8 0.00 0.2777640 79.2 79.6
2021-07-22 11:45:00 78.1 52.2 59.1 78.1 78.1 8.7 15.8 11.9 204.9 180.0 0.00 0.2817451 79.2 79.9
2021-07-22 11:50:00 78.9 49.4 58.3 78.9 78.9 11.9 15.5 11.3 171.9 167.5 0.00 0.2794828 79.2 80.2
2021-07-22 11:55:00 78.3 48.8 57.5 78.3 78.3 11.7 15.3 11.6 179.8 187.2 0.00 0.2830643 79.2 80.4
2021-07-22 12:00:00 78.2 48.6 57.2 78.2 78.2 14.2 16.9 12.9 190.3 185.0 0.00 0.2856483 79.3 80.7
2021-07-22 12:05:00 78.6 48.0 57.3 78.6 78.6 10.6 15.5 11.9 188.5 186.6 0.00 0.2867641 79.3 80.9
2021-07-22 12:10:00 79.5 47.1 57.6 79.5 79.5 12.8 14.6 11.2 183.7 174.8 0.00 0.2891360 79.4 81.2
2021-07-22 12:15:00 79.0 48.7 58.0 79.0 79.0 14.4 16.5 12.6 179.2 191.0 0.00 0.2899578 79.4 81.4
2021-07-22 12:20:00 79.3 49.0 58.5 79.3 79.3 13.7 16.4 12.9 184.5 171.8 0.00 0.2923485 79.6 81.7
2021-07-22 12:25:00 79.5 46.3 57.1 79.5 79.5 13.7 17.4 13.2 156.2 167.8 0.00 0.2936244 79.9 81.9
2021-07-22 12:30:00 80.2 45.7 57.3 80.2 80.5 14.2 17.6 11.2 175.4 181.5 0.00 0.2948624 80.3 82.1
2021-07-22 12:35:00 79.7 45.9 57.0 79.7 79.7 11.3 18.1 12.2 207.6 190.2 0.00 0.2936896 80.9 82.4
2021-07-22 12:40:00 79.5 49.6 59.1 79.5 79.5 7.6 15.5 11.6 201.1 184.4 0.00 0.2961827 81.5 82.6
2021-07-22 12:45:00 80.1 46.0 57.5 80.1 80.5 11.3 16.5 12.1 162.2 167.8 0.00 0.2962915 82.1 82.8
2021-07-22 12:50:00 79.6 45.5 56.7 79.6 79.6 9.7 18.3 13.3 163.3 177.1 0.00 0.2959915 82.7 83.0
2021-07-22 12:55:00 80.6 46.8 58.4 80.6 81.0 9.0 16.4 12.6 169.0 162.6 0.00 0.2963915 83.3 83.2
2021-07-22 13:00:00 80.3 44.5 56.7 80.3 80.6 16.5 17.6 12.7 170.5 165.0 0.00 0.2933989 83.8 83.4
2021-07-22 13:05:00 80.7 44.5 57.1 80.7 80.9 13.1 16.0 12.5 165.3 165.4 0.00 0.2938904 84.4 83.6
2021-07-22 13:10:00 80.8 43.9 56.7 80.8 80.8 16.2 19.9 14.8 178.5 173.4 0.00 0.2953080 84.9 83.8
2021-07-22 13:15:00 80.4 45.3 57.3 80.4 80.7 11.2 17.4 13.2 178.1 171.9 0.00 0.2929907 85.3 84.0
2021-07-22 13:20:00 80.8 43.9 56.7 80.8 80.8 13.0 17.1 11.4 179.6 188.0 0.00 0.2894461 85.7 84.2
2021-07-22 13:25:00 81.2 44.3 57.4 81.2 81.2 8.5 13.1 9.6 182.9 171.1 0.00 0.2959442 86.2 84.4
2021-07-22 13:30:00 81.6 43.1 56.9 81.6 81.4 8.5 14.9 11.0 196.7 186.3 0.00 0.2952400 86.6 84.6
2021-07-22 13:35:00 81.2 43.0 56.6 81.2 81.1 14.2 16.7 11.9 175.7 173.9 0.00 0.2947295 87.0 84.8
2021-07-22 13:40:00 81.4 44.6 57.8 81.4 81.5 8.8 19.6 12.1 192.7 186.3 0.00 0.2953388 87.4 85.0
2021-07-22 13:45:00 81.7 43.5 57.3 81.7 81.6 9.2 15.6 12.6 156.1 168.7 0.00 0.2955253 87.8 85.2
2021-07-22 13:50:00 81.8 42.5 56.8 81.8 81.6 9.0 17.4 12.4 193.6 169.8 0.00 0.3009140 88.2 85.4
2021-07-22 13:55:00 82.0 40.5 55.6 82.0 81.5 12.2 16.9 12.0 176.9 173.4 0.00 0.2845047 88.5 85.7
2021-07-22 14:00:00 82.7 42.7 57.7 82.7 82.4 9.2 18.5 11.9 131.0 167.7 0.00 0.2943839 88.9 85.9
2021-07-22 14:05:00 82.5 41.9 57.0 82.5 82.1 14.6 16.5 12.7 176.5 167.2 0.00 0.3032197 89.2 86.1
2021-07-22 14:10:00 81.7 42.1 56.5 81.7 81.5 13.0 17.2 13.4 160.9 156.5 0.00 0.2758963 89.5 86.3
2021-07-22 14:15:00 82.0 41.5 56.3 82.0 81.7 13.9 18.1 13.9 177.4 173.6 0.00 0.2323064 89.8 86.5
2021-07-22 14:20:00 82.8 41.4 57.0 82.8 82.3 10.8 17.2 12.1 180.3 173.4 0.00 0.2630993 90.0 86.7
2021-07-22 14:25:00 82.5 43.3 57.9 82.5 82.3 11.7 14.9 11.3 159.4 185.3 0.00 0.2578689 90.2 86.9
2021-07-22 14:30:00 82.6 42.7 57.6 82.6 82.3 7.6 15.6 11.5 215.7 188.3 0.00 0.2932962 90.4 87.1
2021-07-22 14:35:00 82.7 43.5 58.2 82.7 82.5 9.6 17.1 10.7 191.8 194.4 0.00 0.3040406 90.6 87.3
2021-07-22 14:40:00 83.0 39.7 56.0 83.0 83.0 10.3 16.0 11.1 169.8 190.1 0.00 0.2892678 90.8 87.4
2021-07-22 14:45:00 83.3 40.2 56.6 83.3 82.7 13.0 15.6 12.4 167.3 158.2 0.00 0.2742426 91.1 87.6
2021-07-22 14:50:00 82.5 40.5 56.0 82.5 81.9 13.3 17.1 13.7 157.9 164.3 0.00 0.2236948 91.4 87.7
2021-07-22 14:55:00 82.2 41.4 56.5 82.2 81.8 9.2 14.9 10.5 170.1 163.5 0.00 0.1709952 91.6 87.9
2021-07-22 15:00:00 81.7 43.5 57.4 81.7 81.6 8.7 14.2 10.8 179.9 172.9 0.00 0.1723976 91.7 88.1
2021-07-22 15:05:00 81.9 42.4 56.8 81.9 81.6 13.5 14.2 10.7 173.7 179.6 0.00 0.2027011 91.7 88.3
2021-07-22 15:10:00 82.8 42.0 57.4 82.8 82.4 10.5 18.5 11.9 189.5 179.1 0.00 0.2146710 91.7 88.4
2021-07-22 15:15:00 82.4 42.7 57.5 82.4 82.1 10.1 17.6 12.9 183.1 171.1 0.00 0.2015239 91.6 88.5
2021-07-22 15:20:00 82.6 43.3 58.0 82.6 82.4 11.7 15.6 11.2 174.7 165.6 0.00 0.1848737 91.6 88.6
2021-07-22 15:25:00 81.9 42.4 56.8 81.9 81.6 10.5 17.6 12.2 180.9 180.4 0.00 0.1554650 91.6 88.6
2021-07-22 15:30:00 82.1 40.8 56.0 82.1 81.6 9.0 13.0 9.5 166.1 171.2 0.00 0.1266567 91.5 88.7
2021-07-22 15:35:00 81.8 41.5 56.1 81.8 81.4 14.7 14.7 9.2 172.8 179.1 0.00 0.1006089 91.5 88.8
2021-07-22 15:40:00 81.5 43.0 56.8 81.5 81.4 8.3 15.3 11.7 160.7 173.3 0.00 0.1210873 91.3 88.8
2021-07-22 15:45:00 82.1 42.4 57.0 82.1 81.8 10.8 14.6 10.8 171.6 161.2 0.00 0.1659745 91.1 88.8
2021-07-22 15:50:00 82.4 41.4 56.6 82.4 82.0 12.1 15.8 11.7 147.9 160.9 0.00 0.1665875 91.0 88.8
2021-07-22 15:55:00 82.3 41.3 56.4 82.3 81.8 11.9 15.6 12.4 166.1 164.1 0.00 0.1739728 90.8 88.8
2021-07-22 16:00:00 83.0 41.9 57.5 83.0 82.6 10.3 14.2 11.5 153.9 164.2 0.00 0.1980313 90.7 88.8
2021-07-22 16:05:00 82.5 41.8 56.9 82.5 82.1 11.5 15.3 11.9 173.2 171.1 0.00 0.1631879 90.7 88.8
2021-07-22 16:10:00 82.5 41.5 56.7 82.5 82.0 13.1 16.4 12.8 157.4 178.1 0.00 0.2007107 90.7 88.8
2021-07-22 16:15:00 82.8 41.1 56.8 82.8 82.3 13.7 15.6 12.2 149.1 176.1 0.00 0.2005123 90.7 88.8
2021-07-22 16:20:00 82.9 40.8 56.6 82.9 82.3 12.8 19.4 12.9 170.0 174.2 0.00 0.1994778 90.7 88.8
2021-07-22 16:25:00 83.1 41.5 57.4 83.1 82.7 12.1 16.4 12.4 167.2 170.7 0.00 0.2003565 90.7 88.8
2021-07-22 16:30:00 83.4 40.8 57.2 83.4 82.9 15.5 16.4 11.4 171.8 185.4 0.00 0.1980405 90.8 88.9
2021-07-22 16:35:00 83.3 41.0 57.2 83.3 82.8 9.7 16.4 12.1 161.4 175.6 0.00 0.1876947 90.9 88.9
2021-07-22 16:40:00 82.6 40.0 55.8 82.6 82.6 15.5 15.5 12.3 156.8 176.0 0.00 0.1212863 91.0 88.9
2021-07-22 16:45:00 81.9 40.8 55.7 81.9 81.4 15.1 17.1 12.3 159.1 163.9 0.00 0.0920403 91.0 89.0
2021-07-22 16:50:00 81.7 40.5 55.4 81.7 81.3 14.2 18.0 14.3 152.3 159.9 0.00 0.1078111 90.9 89.0
2021-07-22 16:55:00 81.9 41.4 56.2 81.9 81.5 12.2 17.8 12.6 186.5 166.5 0.00 0.0986253 90.7 89.0
2021-07-22 17:00:00 82.1 40.6 55.8 82.1 81.6 12.2 14.6 11.2 170.9 171.7 0.00 0.1193781 90.5 89.0
2021-07-22 17:05:00 81.9 41.1 55.9 81.9 81.5 12.6 15.5 11.8 179.6 173.8 0.00 0.1026465 90.3 89.0
2021-07-22 17:10:00 81.7 40.8 55.6 81.7 81.3 8.1 13.5 11.3 178.9 183.6 0.00 0.0922872 90.2 88.9
2021-07-22 17:15:00 81.9 40.8 55.8 81.9 81.5 13.1 14.2 11.4 189.6 171.5 0.00 0.0887998 90.0 88.9
2021-07-22 17:20:00 81.7 40.8 55.6 81.7 81.3 11.7 15.6 13.1 161.2 177.9 0.00 0.0781279 89.8 88.8
2021-07-22 17:25:00 81.6 41.1 55.6 81.6 81.2 11.3 16.5 13.6 169.7 168.3 0.00 0.1006394 89.6 88.8
2021-07-22 17:30:00 82.0 40.4 55.6 82.0 81.5 12.1 14.0 11.0 159.2 177.7 0.00 0.1235908 89.4 88.7
2021-07-22 17:35:00 82.0 41.3 56.2 82.0 81.6 11.0 14.9 11.4 163.0 177.5 0.00 0.1218676 89.2 88.6
2021-07-22 17:40:00 81.9 43.3 57.4 81.9 81.8 8.8 12.8 10.4 191.5 173.2 0.00 0.0962841 89.0 88.6
2021-07-22 17:45:00 81.4 42.9 56.7 81.4 81.2 6.7 11.9 8.8 167.4 187.9 0.00 0.0793361 89.0 88.5
2021-07-22 17:50:00 81.4 43.3 56.9 81.4 81.3 9.2 12.1 8.9 196.9 189.1 0.00 0.0716396 88.8 88.4
2021-07-22 17:55:00 81.2 40.9 55.2 81.2 80.9 11.9 14.4 10.7 189.1 192.7 0.00 0.0669349 88.7 88.4
2021-07-22 18:00:00 81.1 42.3 56.1 81.1 81.0 8.8 11.9 9.3 173.3 186.6 0.00 0.0510774 88.5 88.3
2021-07-22 18:05:00 81.2 42.5 56.3 81.2 81.1 9.0 9.7 8.1 191.4 177.1 0.00 0.0490806 88.3 88.3
2021-07-22 18:10:00 81.2 41.8 55.8 81.2 81.0 11.3 12.1 10.2 162.9 177.2 0.00 0.0457967 88.1 88.2
2021-07-22 18:15:00 81.1 41.3 55.3 81.1 80.8 10.6 11.9 10.0 163.9 178.5 0.00 0.0491709 87.9 88.1
2021-07-22 18:20:00 80.9 41.3 55.2 80.9 80.7 10.3 11.5 9.3 184.3 177.1 0.00 0.0412939 87.7 88.0
2021-07-22 18:25:00 80.6 43.8 56.5 80.6 80.7 6.3 12.6 8.8 142.4 167.9 0.00 0.0359343 87.5 87.9
2021-07-22 18:30:00 80.3 45.3 57.2 80.3 80.6 5.3 10.1 7.4 163.1 162.1 0.00 0.0319310 87.2 87.8
2021-07-22 18:35:00 79.8 46.1 57.3 79.8 79.8 6.5 12.4 8.6 163.6 165.3 0.00 0.0312722 87.0 87.6
2021-07-22 18:40:00 79.6 45.2 56.6 79.6 79.6 7.2 9.0 7.7 165.9 162.4 0.00 0.0470481 86.7 87.5
2021-07-22 18:45:00 79.8 45.1 56.6 79.8 79.8 8.5 8.5 6.9 155.3 158.1 0.00 0.0559940 86.5 87.4
2021-07-22 18:50:00 79.5 45.7 56.8 79.5 79.5 7.6 10.1 6.4 152.2 153.8 0.00 0.0360675 86.3 87.3
2021-07-22 18:55:00 79.3 46.2 56.8 79.3 79.3 5.8 9.6 7.6 167.7 154.9 0.00 0.0426564 86.1 87.2
2021-07-22 19:00:00 79.2 46.3 56.8 79.2 79.2 8.7 8.7 6.8 168.6 156.3 0.00 0.0399511 85.9 87.0
2021-07-22 19:05:00 78.9 47.6 57.3 78.9 78.9 5.8 9.4 7.2 149.9 156.2 0.00 0.0381139 85.7 86.9
2021-07-22 19:10:00 78.9 47.0 56.9 78.9 78.9 9.0 9.0 6.7 156.9 155.5 0.00 0.0421753 85.5 86.8
2021-07-22 19:15:00 79.0 47.6 57.4 79.0 79.0 6.7 8.1 6.3 153.2 155.8 0.00 0.0407532 85.4 86.7
2021-07-22 19:20:00 78.7 47.6 57.2 78.7 78.7 7.6 8.7 6.8 151.9 153.1 0.00 0.0349571 85.2 86.6
2021-07-22 19:25:00 78.4 48.9 57.6 78.4 78.4 8.5 8.5 5.6 159.2 152.9 0.00 0.0296384 85.0 86.4
2021-07-22 19:30:00 78.1 50.1 58.1 78.1 78.1 5.6 7.8 5.9 157.0 158.5 0.00 0.0256511 84.9 86.3
2021-07-22 19:35:00 77.5 51.3 58.2 77.5 77.5 5.8 7.4 5.6 170.1 152.1 0.00 0.0189829 84.7 86.2
2021-07-22 19:40:00 77.1 52.2 58.3 77.1 77.1 6.0 7.1 5.9 149.6 149.8 0.00 0.0143697 84.5 86.1
2021-07-22 19:45:00 76.8 53.4 58.6 76.8 76.8 4.6 7.2 5.1 146.3 152.6 0.00 0.0112369 84.3 86.0
2021-07-22 19:50:00 76.2 54.2 58.5 76.2 76.2 4.7 6.7 5.3 153.8 148.4 0.00 0.0086234 84.1 85.9
2021-07-22 19:55:00 75.7 55.3 58.6 75.7 75.7 4.9 6.3 5.3 154.9 152.1 0.00 0.0054656 83.9 85.7
2021-07-22 20:00:00 75.1 57.0 58.9 75.1 75.1 5.1 7.4 5.3 163.7 150.0 0.00 0.0029636 83.7 85.6
2021-07-22 20:05:00 74.6 57.6 58.6 74.6 74.6 4.9 6.7 4.9 171.7 151.9 0.00 0.0002860 83.5 85.5
2021-07-22 20:10:00 74.2 58.2 58.6 74.2 74.2 4.7 6.3 5.1 157.0 155.0 0.00 0.0000000 83.3 85.4
2021-07-22 20:15:00 73.8 59.1 58.6 73.8 73.8 4.6 5.8 4.9 147.3 152.6 0.00 0.0000000 83.1 85.2
2021-07-22 20:20:00 73.5 59.4 58.5 73.5 73.5 4.9 6.9 5.2 156.8 151.7 0.00 0.0000000 82.8 85.1
2021-07-22 20:25:00 73.2 60.0 58.5 73.2 73.2 3.5 7.1 4.9 153.2 153.9 0.00 0.0000000 82.6 84.9
2021-07-22 20:30:00 72.9 60.4 58.4 72.9 72.9 4.6 5.5 4.3 166.5 157.7 0.00 0.0000000 82.4 84.8
2021-07-22 20:35:00 72.4 62.1 58.7 72.4 72.4 3.3 5.1 4.1 143.8 161.4 0.00 0.0000000 82.1 84.6
2021-07-22 20:40:00 72.0 62.9 58.7 72.0 72.0 3.8 5.1 4.1 151.5 156.1 0.00 0.0000000 81.9 84.5
2021-07-22 20:45:00 71.7 63.2 58.5 71.7 71.7 4.4 5.1 4.1 146.8 152.5 0.00 0.0000000 81.7 84.3
2021-07-22 20:50:00 71.6 63.7 58.6 71.6 71.6 4.2 4.9 4.2 156.6 156.4 0.00 0.0000000 81.5 84.2
2021-07-22 20:55:00 71.3 64.0 58.5 71.3 71.3 4.0 5.1 4.3 156.3 155.6 0.00 0.0000000 81.3 84.1
2021-07-22 21:00:00 71.0 64.7 58.6 71.0 71.0 4.0 4.7 4.1 166.3 157.4 0.00 0.0000000 81.1 83.9
2021-07-22 21:05:00 70.7 65.1 58.4 70.7 70.7 4.2 4.7 4.0 142.6 153.0 0.00 0.0000000 80.9 83.8
2021-07-22 21:10:00 70.7 65.1 58.4 70.7 70.7 4.6 4.7 4.2 147.0 153.5 0.00 0.0000000 80.7 83.6
2021-07-22 21:15:00 70.4 66.1 58.5 70.4 70.4 3.8 4.7 4.0 154.8 148.4 0.00 0.0000000 80.5 83.4
2021-07-22 21:20:00 70.3 66.6 58.6 70.3 70.3 3.0 3.8 3.2 132.3 149.8 0.00 0.0000000 80.3 83.3
2021-07-22 21:25:00 70.0 66.7 58.4 70.0 70.0 3.3 4.2 3.3 158.7 148.9 0.00 0.0000000 80.1 83.1
2021-07-22 21:30:00 69.7 67.8 58.6 69.7 69.7 3.3 4.2 3.4 146.3 147.5 0.00 0.0000000 79.9 83.0
2021-07-22 21:35:00 69.6 67.5 58.4 69.6 69.6 3.5 4.2 3.5 150.1 156.1 0.00 0.0000000 79.7 82.9
2021-07-22 21:40:00 69.5 67.5 58.3 69.5 69.5 3.7 4.4 3.8 155.1 157.1 0.00 0.0000000 79.6 82.7
2021-07-22 21:45:00 69.3 67.8 58.2 69.3 69.3 3.5 3.8 3.3 176.4 158.6 0.00 0.0000000 79.4 82.6
2021-07-22 21:50:00 69.1 67.9 58.1 69.1 69.1 3.1 4.4 3.5 161.5 158.2 0.00 0.0000000 79.2 82.5
2021-07-22 21:55:00 69.0 68.4 58.2 69.0 69.0 3.5 4.0 3.5 109.1 147.4 0.00 0.0000000 79.1 82.3
2021-07-22 22:00:00 68.8 68.6 58.1 68.8 68.8 4.2 5.6 4.2 144.9 132.2 0.00 0.0000000 78.9 82.2
2021-07-22 22:05:00 68.6 69.5 58.3 68.6 68.6 3.7 5.1 3.8 137.4 139.1 0.00 0.0000000 78.7 82.1
2021-07-22 22:10:00 68.6 67.7 57.5 68.6 68.6 6.0 6.0 5.1 142.6 133.6 0.00 0.0000000 78.6 81.9
2021-07-22 22:15:00 69.2 67.2 57.9 69.2 69.2 5.1 7.8 5.5 141.8 140.6 0.00 0.0000000 78.4 81.8
2021-07-22 22:20:00 69.3 66.5 57.7 69.3 69.3 6.0 6.7 5.3 144.6 141.8 0.00 0.0000000 78.2 81.6
2021-07-22 22:25:00 69.2 66.5 57.6 69.2 69.2 4.9 6.5 4.9 131.1 143.6 0.00 0.0000000 78.1 81.5
2021-07-22 22:30:00 69.0 67.3 57.7 69.0 69.0 4.2 5.8 4.4 165.0 150.2 0.00 0.0000000 77.9 81.4
2021-07-22 22:35:00 68.6 66.6 57.1 68.6 68.6 5.8 5.8 4.8 142.1 144.7 0.00 0.0000000 77.8 81.3
2021-07-22 22:40:00 68.8 66.2 57.0 68.8 68.8 6.3 6.7 5.6 149.3 146.9 0.00 0.0000000 77.6 81.1
2021-07-22 22:45:00 68.8 65.8 56.9 68.8 68.8 5.5 6.7 5.5 132.0 143.4 0.00 0.0000000 77.5 81.0
2021-07-22 22:50:00 68.4 67.2 57.1 68.4 68.4 6.0 6.7 5.2 125.6 142.2 0.00 0.0000000 77.3 80.9
2021-07-22 22:55:00 68.2 67.1 56.9 68.2 68.2 6.7 7.8 6.3 146.2 138.4 0.00 0.0000000 77.2 80.8
2021-07-22 23:00:00 68.0 68.0 57.0 68.0 68.0 4.9 7.1 5.9 115.4 137.5 0.00 0.0000000 77.1 80.6
2021-07-22 23:05:00 67.8 67.7 56.7 67.8 67.8 5.3 7.2 5.8 137.8 141.8 0.00 0.0000000 76.9 80.5
2021-07-22 23:10:00 67.8 67.0 56.4 67.8 67.8 7.1 7.4 6.3 129.1 136.9 0.00 0.0000000 76.8 80.4
2021-07-22 23:15:00 67.6 67.5 56.5 67.6 67.6 5.6 9.0 6.8 144.9 135.6 0.00 0.0000000 76.7 80.3
2021-07-22 23:20:00 67.4 68.0 56.5 67.4 67.4 5.5 7.6 6.3 134.5 133.6 0.00 0.0000000 76.5 80.2
2021-07-22 23:25:00 67.2 68.5 56.5 67.2 67.2 5.3 6.7 5.3 155.7 140.7 0.00 0.0000000 76.4 80.0
2021-07-22 23:30:00 67.1 69.1 56.6 67.1 67.1 4.9 7.4 5.5 169.0 147.2 0.00 0.0000000 76.2 79.9
2021-07-22 23:35:00 66.8 68.8 56.2 66.8 66.8 5.5 6.3 5.4 148.3 138.5 0.00 0.0000000 76.1 79.8
2021-07-22 23:40:00 66.8 68.1 55.9 66.8 66.8 7.6 7.6 6.3 135.5 136.6 0.00 0.0000000 76.0 79.7
2021-07-22 23:45:00 66.6 68.9 56.0 66.6 66.6 6.2 7.6 6.3 134.4 137.5 0.00 0.0000000 75.8 79.6
2021-07-22 23:50:00 66.5 68.8 56.0 66.5 66.5 6.3 7.4 6.3 129.0 136.0 0.00 0.0000000 75.7 79.5
2021-07-22 23:55:00 66.5 68.7 55.9 66.5 66.5 5.6 7.6 6.5 136.0 130.5 0.00 0.0000000 75.6 79.3
2021-07-23 00:00:00 66.2 70.4 56.3 66.2 66.2 5.8 7.1 6.3 116.8 127.1 0.00 0.0000000 75.5 79.3

Data is courtesy of the NM Climate Center. DO NOT USE IN LEGAL PROCEEDINGS.